Time;durP1;ratioP1;P1;durP2;ratioP2;P2;SDS_P1;SDS_P2;PMS_P1;PMS_P2;Temp;Humidity;BMP_temperature;BMP_pressure;BME280_temperature;BME280_humidity;BME280_pressure;Samples;Min_cycle;Max_cycle;Signal;HPM_P1;HPM_P2
2023/10/10 00:00:54;;;;;;;1999.90;999.90;;;12.30;99.90;;;;;;5095428;28;20067;-75
2023/10/10 00:03:21;;;;;;;1999.90;999.90;;;12.30;99.90;;;;;;5096884;28;20029;-75
2023/10/10 00:05:46;;;;;;;1999.90;999.90;;;12.20;99.90;;;;;;5096572;28;20031;-75
2023/10/10 00:08:12;;;;;;;1999.90;999.90;;;12.20;99.90;;;;;;5096076;28;20040;-75
2023/10/10 00:10:50;;;;;;;1999.90;999.90;;;12.20;99.90;;;;;;5095011;28;20090;-75
2023/10/10 00:13:19;;;;;;;1999.90;999.90;;;12.20;99.90;;;;;;5097025;28;20056;-75
2023/10/10 00:15:55;;;;;;;1999.90;999.90;;;12.30;99.90;;;;;;5095795;28;20028;-76
2023/10/10 00:18:22;;;;;;;1999.90;999.90;;;12.20;99.90;;;;;;5095104;28;20028;-75
2023/10/10 00:21:06;;;;;;;1999.90;999.90;;;12.10;99.90;;;;;;5095361;28;20037;-75
2023/10/10 00:23:42;;;;;;;1999.90;999.90;;;12.10;99.90;;;;;;5095186;28;20041;-75
2023/10/10 00:26:12;;;;;;;1999.90;999.90;;;12.00;99.90;;;;;;5096272;28;20040;-75
2023/10/10 00:28:40;;;;;;;1999.90;999.90;;;11.90;99.90;;;;;;5094833;28;20035;-75
2023/10/10 00:31:09;;;;;;;1999.90;999.90;;;11.80;99.90;;;;;;5095039;28;20033;-75
2023/10/10 00:33:38;;;;;;;1999.90;999.90;;;11.70;99.90;;;;;;5094890;28;20033;-75
2023/10/10 00:36:05;;;;;;;1999.90;999.90;;;11.60;99.90;;;;;;5095747;28;20069;-75
2023/10/10 00:38:30;;;;;;;1999.90;999.90;;;11.50;99.90;;;;;;5094553;28;20028;-75
2023/10/10 00:40:57;;;;;;;1999.90;999.90;;;11.50;99.90;;;;;;5096155;28;20044;-75
2023/10/10 00:43:24;;;;;;;1999.90;999.90;;;11.50;99.90;;;;;;5096587;28;20032;-75
2023/10/10 00:45:54;;;;;;;1999.90;999.90;;;11.40;99.90;;;;;;5094505;28;20025;-77
2023/10/10 00:48:29;;;;;;;1999.90;999.90;;;11.30;99.90;;;;;;5094632;28;20116;-75
2023/10/10 00:51:05;;;;;;;1999.90;999.90;;;11.30;99.90;;;;;;5095873;28;20115;-75
2023/10/10 00:53:33;;;;;;;1999.90;999.90;;;11.20;99.90;;;;;;5094389;28;20028;-75
2023/10/10 00:56:00;;;;;;;1999.90;999.90;;;11.20;99.90;;;;;;5093663;28;20110;-75
2023/10/10 00:58:35;;;;;;;1999.90;999.90;;;11.20;99.90;;;;;;5095015;28;20379;-75
2023/10/10 01:01:07;;;;;;;1999.90;999.90;;;11.10;99.90;;;;;;5095847;28;20032;-75
2023/10/10 01:03:34;;;;;;;1999.90;999.90;;;11.10;99.90;;;;;;5094298;28;20110;-76
2023/10/10 01:06:05;;;;;;;1999.90;999.90;;;11.10;99.90;;;;;;5095219;28;20047;-75
2023/10/10 01:08:55;;;;;;;1999.90;999.90;;;11.10;99.90;;;;;;5095365;28;20059;-77
2023/10/10 01:11:22;;;;;;;1999.90;999.90;;;11.10;99.90;;;;;;5099226;28;20036;-75
2023/10/10 01:13:49;;;;;;;1999.90;999.90;;;11.00;99.90;;;;;;5099173;28;20485;-75
2023/10/10 01:16:17;;;;;;;1999.90;999.90;;;11.00;99.90;;;;;;5097493;28;20114;-75
2023/10/10 01:18:51;;;;;;;1999.90;999.90;;;10.90;99.90;;;;;;5098968;28;20402;-75
2023/10/10 01:21:28;;;;;;;1999.90;999.90;;;10.90;99.90;;;;;;5099314;28;20032;-75
2023/10/10 01:23:58;;;;;;;1999.90;999.90;;;10.80;99.90;;;;;;5097590;28;20059;-75
2023/10/10 01:26:28;;;;;;;1999.90;999.90;;;10.80;99.90;;;;;;5098775;28;20041;-75
2023/10/10 01:28:54;;;;;;;1999.90;999.90;;;10.80;99.90;;;;;;5099030;28;20020;-75
2023/10/10 01:31:19;;;;;;;1999.90;999.90;;;10.80;99.90;;;;;;5098987;28;20482;-75
2023/10/10 01:33:47;;;;;;;1999.90;999.90;;;10.70;99.90;;;;;;5097644;28;20040;-77
2023/10/10 01:36:19;;;;;;;1999.90;999.90;;;10.60;99.90;;;;;;5098548;28;20040;-78
2023/10/10 01:38:56;;;;;;;1999.90;999.90;;;10.70;99.90;;;;;;5097479;28;20108;-75
2023/10/10 01:41:48;;;;;;;1999.90;999.90;;;10.60;99.90;;;;;;5099320;28;20098;-79
2023/10/10 01:44:22;;;;;;;1999.90;999.90;;;10.60;99.90;;;;;;5097547;28;20033;-77
2023/10/10 01:46:50;;;;;;;1999.90;999.90;;;10.60;99.90;;;;;;5098482;28;20037;-77
2023/10/10 01:49:21;;;;;;;1999.90;999.90;;;10.60;99.90;;;;;;5097415;28;20024;-75
2023/10/10 01:51:55;;;;;;;1999.90;999.90;;;10.70;99.90;;;;;;5097276;28;20115;-75
2023/10/10 01:54:22;;;;;;;1999.90;999.90;;;10.70;99.90;;;;;;5098653;28;20171;-77
2023/10/10 01:56:48;;;;;;;1999.90;999.90;;;10.70;99.90;;;;;;5095245;28;20032;-75
2023/10/10 01:59:19;;;;;;;1999.90;999.90;;;10.70;99.90;;;;;;5097009;28;20465;-75
2023/10/10 02:01:45;;;;;;;1999.90;999.90;;;10.70;99.90;;;;;;5098403;28;20512;-75
2023/10/10 02:04:11;;;;;;;1999.90;999.90;;;10.70;99.90;;;;;;5098595;28;20036;-76
2023/10/10 02:06:40;;;;;;;1999.90;999.90;;;10.80;99.90;;;;;;5098341;28;20486;-75
2023/10/10 02:09:19;;;;;;;1999.90;999.90;;;10.90;99.90;;;;;;5098172;28;20028;-75
2023/10/10 02:11:53;;;;;;;1999.90;999.90;;;10.80;99.90;;;;;;5098510;28;20503;-75
2023/10/10 02:14:24;;;;;;;1999.90;999.90;;;10.80;99.90;;;;;;5096913;28;20118;-75
2023/10/10 02:16:49;;;;;;;1999.90;999.90;;;10.90;99.90;;;;;;5097945;28;20036;-75
2023/10/10 02:19:15;;;;;;;1999.90;999.90;;;10.80;99.90;;;;;;5098108;28;20029;-75
2023/10/10 02:21:51;;;;;;;1999.90;999.90;;;10.80;99.90;;;;;;5096601;28;20067;-75
2023/10/10 02:26:55;;;;;;;1999.90;999.90;;;10.80;99.90;;;;;;5094998;28;20115;-78
2023/10/10 02:29:34;;;;;;;1999.90;999.90;;;10.70;99.90;;;;;;5097764;28;20035;-75
2023/10/10 02:32:13;;;;;;;1999.90;999.90;;;10.80;99.90;;;;;;5096547;28;20029;-75
2023/10/10 02:34:51;;;;;;;1999.90;999.90;;;10.70;99.90;;;;;;5096607;28;20067;-75
2023/10/10 02:42:33;;;;;;;1999.90;999.90;;;10.50;99.90;;;;;;5097728;28;20060;-75
2023/10/10 02:44:59;;;;;;;1999.90;999.90;;;10.50;99.90;;;;;;5096352;28;20063;-75
2023/10/10 02:47:30;;;;;;;1999.90;999.90;;;10.40;99.90;;;;;;5095773;28;20028;-75
2023/10/10 02:50:39;;;;;;;1999.90;999.90;;;10.40;99.90;;;;;;5097119;28;20119;-75
2023/10/10 02:53:00;;;;;;;1999.90;999.90;;;10.30;99.90;;;;;;5096787;28;20029;-75
2023/10/10 02:55:33;;;;;;;1999.90;999.90;;;10.20;99.90;;;;;;5096275;28;20040;-76
2023/10/10 02:57:59;;;;;;;1999.90;999.90;;;10.20;99.90;;;;;;5095603;28;20063;-75
2023/10/10 03:02:53;;;;;;;1999.90;999.90;;;10.20;99.90;;;;;;5097587;28;20067;-75
2023/10/10 03:05:38;;;;;;;1999.90;999.90;;;10.10;99.90;;;;;;5096171;28;20067;-75
2023/10/10 03:08:12;;;;;;;1999.90;999.90;;;10.20;99.90;;;;;;5096031;28;20029;-77
2023/10/10 03:10:41;;;;;;;1999.90;999.90;;;10.00;99.90;;;;;;5097600;28;20043;-77
2023/10/10 03:16:15;;;;;;;1999.90;999.90;;;9.90;99.90;;;;;;5094077;28;20036;-75
2023/10/10 03:18:54;;;;;;;1999.90;999.90;;;10.00;99.90;;;;;;5095080;28;20040;-75
2023/10/10 03:21:43;;;;;;;1999.90;999.90;;;10.00;99.90;;;;;;5095482;28;20091;-75
2023/10/10 03:24:50;;;;;;;1999.90;999.90;;;10.00;99.90;;;;;;5095520;28;20029;-78
2023/10/10 03:27:11;;;;;;;1999.90;999.90;;;9.90;99.90;;;;;;5096097;28;20059;-75
2023/10/10 03:29:37;;;;;;;1999.90;999.90;;;9.90;99.90;;;;;;5095713;28;20059;-75
2023/10/10 03:34:56;;;;;;;1999.90;999.90;;;9.70;99.90;;;;;;5093868;28;20102;-75
2023/10/10 03:39:57;;;;;;;1999.90;999.90;;;9.80;99.90;;;;;;5096612;28;20036;-78
2023/10/10 05:24:00;;;;;;;1999.90;999.90;;;9.30;99.90;;;;;;5096512;28;20041;-77
2023/10/10 05:26:30;;;;;;;1999.90;999.90;;;9.30;99.90;;;;;;5096923;28;20036;-77
2023/10/10 05:28:57;;;;;;;1999.90;999.90;;;9.30;99.90;;;;;;5096992;28;20421;-77
2023/10/10 05:31:23;;;;;;;1999.90;999.90;;;9.30;99.90;;;;;;5097327;28;20028;-77
2023/10/10 05:33:50;;;;;;;1999.90;999.90;;;9.40;99.90;;;;;;5097415;28;20031;-77
2023/10/10 05:36:18;;;;;;;1999.90;999.90;;;9.40;99.90;;;;;;5078310;28;20041;-77
2023/10/10 05:38:45;;;;;;;1999.90;999.90;;;9.40;99.90;;;;;;5078630;28;20063;-76
2023/10/10 05:41:12;;;;;;;1999.90;999.90;;;9.40;99.90;;;;;;5097100;28;20044;-76
2023/10/10 05:43:39;;;;;;;1999.90;999.90;;;9.40;99.90;;;;;;5097086;28;20029;-76
2023/10/10 05:46:05;;;;;;;1999.90;999.90;;;9.40;99.90;;;;;;5096837;28;20037;-76
2023/10/10 05:48:35;;;;;;;1999.90;999.90;;;9.40;99.90;;;;;;5096773;28;20033;-76
2023/10/10 05:51:03;;;;;;;1999.90;999.90;;;9.40;99.90;;;;;;5096942;28;20029;-76
2023/10/10 05:53:33;;;;;;;1999.90;999.90;;;9.30;99.90;;;;;;5078118;28;20024;-76
2023/10/10 05:55:59;;;;;;;1999.90;999.90;;;9.40;99.90;;;;;;5096314;28;20033;-76
2023/10/10 05:58:26;;;;;;;1999.90;999.90;;;9.40;99.90;;;;;;5096057;28;20037;-76
2023/10/10 06:00:53;;;;;;;1999.90;999.90;;;9.40;99.90;;;;;;5096680;28;20028;-76
2023/10/10 06:03:21;;;;;;;1999.90;999.90;;;9.40;99.90;;;;;;5078178;28;20032;-76
2023/10/10 06:05:49;;;;;;;1999.90;999.90;;;9.40;99.90;;;;;;5077926;28;20075;-76
2023/10/10 06:08:15;;;;;;;1999.90;999.90;;;9.50;99.90;;;;;;5078374;28;20354;-76
2023/10/10 06:10:41;;;;;;;1999.90;999.90;;;9.50;99.90;;;;;;5078067;28;20044;-76
2023/10/10 06:13:07;;;;;;;1999.90;999.90;;;9.60;99.90;;;;;;5077908;28;20131;-76
2023/10/10 06:15:33;;;;;;;1999.90;999.90;;;9.60;99.90;;;;;;5096422;28;20052;-76
2023/10/10 06:18:13;;;;;;;1999.90;999.90;;;9.60;99.90;;;;;;5077711;28;20098;-76
2023/10/10 06:20:42;;;;;;;1999.90;999.90;;;9.80;99.90;;;;;;5096574;28;20397;-76
2023/10/10 06:23:16;;;;;;;1999.90;999.90;;;9.80;99.90;;;;;;5096094;28;20043;-76
2023/10/10 06:25:43;;;;;;;1999.90;999.90;;;9.90;99.90;;;;;;5077776;28;20091;-75
2023/10/10 06:28:22;;;;;;;1999.90;999.90;;;9.90;99.90;;;;;;5077615;28;20028;-76
2023/10/10 06:30:52;;;;;;;1999.90;999.90;;;10.00;99.90;;;;;;5077816;28;20117;-76
2023/10/10 06:33:27;;;;;;;1999.90;999.90;;;10.00;99.90;;;;;;5077866;28;20025;-76
2023/10/10 06:35:53;;;;;;;1999.90;999.90;;;10.10;99.90;;;;;;5096046;28;20036;-76
2023/10/10 06:38:24;;;;;;;1999.90;999.90;;;10.20;99.90;;;;;;5077508;28;20028;-76
2023/10/10 06:40:53;;;;;;;1999.90;999.90;;;10.30;99.90;;;;;;5096383;28;20032;-76
2023/10/10 06:43:22;;;;;;;1999.90;999.90;;;10.30;99.90;;;;;;5096180;28;20024;-76
2023/10/10 06:45:54;;;;;;;1999.90;999.90;;;10.30;99.90;;;;;;5095705;28;20029;-76
2023/10/10 06:48:21;;;;;;;1999.90;999.90;;;10.50;99.90;;;;;;5095977;28;20114;-76
2023/10/10 06:50:51;;;;;;;1999.90;999.90;;;10.50;99.90;;;;;;5095944;28;20040;-76
2023/10/10 06:53:35;;;;;;;1999.90;999.90;;;10.60;99.90;;;;;;5095581;28;20520;-76
2023/10/10 06:56:16;;;;;;;1999.90;999.90;;;10.70;99.90;;;;;;5077184;28;20048;-76
2023/10/10 06:58:43;;;;;;;1999.90;999.90;;;10.80;99.90;;;;;;5076851;28;20043;-76
2023/10/10 07:01:11;;;;;;;1999.90;999.90;;;10.80;99.90;;;;;;5078072;28;20044;-76
2023/10/10 07:03:39;;;;;;;1999.90;999.90;;;10.90;99.90;;;;;;5095595;28;20089;-76
2023/10/10 07:06:08;;;;;;;1999.90;999.90;;;11.10;99.90;;;;;;5076096;28;20041;-76
2023/10/10 07:08:34;;;;;;;1999.90;999.90;;;11.20;99.90;;;;;;5076820;28;20035;-76
2023/10/10 07:11:01;;;;;;;1999.90;999.90;;;11.30;99.90;;;;;;5077208;28;20043;-76
2023/10/10 07:13:30;;;;;;;1999.90;999.90;;;11.40;99.90;;;;;;5095537;28;20031;-76
2023/10/10 07:15:56;;;;;;;1999.90;999.90;;;11.50;99.90;;;;;;5095052;28;20741;-76
2023/10/10 07:18:22;;;;;;;1999.90;999.90;;;11.60;99.90;;;;;;5076822;28;20099;-76
2023/10/10 07:21:08;;;;;;;1999.90;999.90;;;11.90;99.90;;;;;;5095593;28;20482;-76
2023/10/10 07:23:39;;;;;;;1999.90;999.90;;;12.00;99.90;;;;;;5095350;28;20067;-76
2023/10/10 07:26:28;;;;;;;1999.90;999.90;;;12.20;99.90;;;;;;5076478;28;20040;-76
2023/10/10 07:28:54;;;;;;;1999.90;999.90;;;12.30;99.90;;;;;;5095502;28;20482;-76
2023/10/10 07:31:22;;;;;;;1999.90;999.90;;;12.30;99.90;;;;;;5095380;28;20494;-76
2023/10/10 07:33:55;;;;;;;1999.90;999.90;;;12.40;99.90;;;;;;5095444;28;20028;-77
2023/10/10 07:36:25;;;;;;;1999.90;999.90;;;12.50;99.90;;;;;;5094958;28;20150;-76
2023/10/10 07:38:54;;;;;;;1999.90;999.90;;;12.70;99.90;;;;;;5094849;28;20099;-76
2023/10/10 07:41:30;;;;;;;1999.90;999.90;;;12.70;99.90;;;;;;5095270;28;20035;-77
2023/10/10 07:43:59;;;;;;;1999.90;999.90;;;12.70;99.90;;;;;;5095098;28;20116;-76
2023/10/10 07:46:27;;;;;;;1999.90;999.90;;;12.90;99.90;;;;;;5094776;28;20039;-75
2023/10/10 07:48:56;;;;;;;1999.90;999.90;;;12.90;99.90;;;;;;5094974;28;20040;-76
2023/10/10 07:51:28;;;;;;;1999.90;999.90;;;13.10;99.90;;;;;;5094693;28;20028;-76
2023/10/10 07:55:03;;;;;;;1999.90;999.90;;;13.20;99.90;;;;;;5094863;28;20024;-77
2023/10/10 07:56:53;;;;;;;1999.90;999.90;;;13.40;99.90;;;;;;5080094;28;20056;-75
2023/10/10 07:59:19;;;;;;;1999.90;999.90;;;13.70;99.90;;;;;;5094657;28;20037;-76
2023/10/10 08:01:47;;;;;;;1999.90;999.90;;;13.70;99.90;;;;;;5094948;28;20037;-76
2023/10/10 08:04:14;;;;;;;1999.90;999.90;;;13.80;99.90;;;;;;5094665;28;20020;-77
2023/10/10 08:06:44;;;;;;;1999.90;999.90;;;14.00;99.90;;;;;;5094552;28;20405;-76
2023/10/10 08:11:46;;;;;;;1999.90;999.90;;;14.30;99.90;;;;;;5091979;28;20478;-76
2023/10/10 08:14:11;;;;;;;1999.90;999.90;;;14.20;99.90;;;;;;5076375;28;20032;-76
2023/10/10 08:16:39;;;;;;;1999.90;999.90;;;14.50;99.90;;;;;;5094204;28;20045;-76
2023/10/10 08:19:05;;;;;;;1999.90;999.90;;;14.60;99.90;;;;;;5098093;28;20071;-77
2023/10/10 08:21:37;;;;;;;1999.90;999.90;;;14.80;99.90;;;;;;5079997;28;20837;-77
2023/10/10 08:24:04;;;;;;;1999.90;999.90;;;14.90;99.90;;;;;;5079834;28;20029;-77
2023/10/10 08:26:38;;;;;;;1999.90;999.90;;;15.10;99.90;;;;;;5097725;28;20506;-76
2023/10/10 08:29:06;;;;;;;1999.90;999.90;;;15.30;99.90;;;;;;5097954;28;20028;-77
2023/10/10 08:31:32;;;;;;;1999.90;999.90;;;15.50;99.90;;;;;;5098134;28;20082;-77
2023/10/10 08:33:58;;;;;;;1999.90;999.90;;;15.60;99.90;;;;;;5098049;28;20537;-76
2023/10/10 08:36:24;;;;;;;1999.90;999.90;;;15.70;99.90;;;;;;5079215;28;20042;-77
2023/10/10 08:38:58;;;;;;;1999.90;999.90;;;15.80;99.90;;;;;;5079428;28;20035;-77
2023/10/10 08:41:27;;;;;;;1999.90;999.90;;;15.90;99.90;;;;;;5079587;28;20033;-77
2023/10/10 08:44:01;;;;;;;1999.90;999.90;;;15.90;99.90;;;;;;5097620;28;20479;-76
2023/10/10 08:46:31;;;;;;;1999.90;999.90;;;16.00;99.90;;;;;;5097545;28;20040;-77
2023/10/10 08:49:03;;;;;;;1999.90;999.90;;;16.10;99.90;;;;;;5097567;28;20032;-77
2023/10/10 08:51:34;;;;;;;1999.90;999.90;;;16.00;99.90;;;;;;5079562;28;20845;-77
2023/10/10 08:54:09;;;;;;;1999.90;999.90;;;16.10;99.90;;;;;;5097957;28;20519;-76
2023/10/10 08:56:37;;;;;;;1999.90;999.90;;;16.30;99.90;;;;;;5097659;28;20036;-77
2023/10/10 08:59:06;;;;;;;1999.90;999.90;;;16.40;99.90;;;;;;5097149;28;20095;-77
2023/10/10 09:01:33;;;;;;;1999.90;999.90;;;16.40;99.90;;;;;;5097695;28;20120;-77
2023/10/10 09:04:02;;;;;;;1999.90;999.90;;;16.70;99.90;;;;;;5097574;28;20037;-77
2023/10/10 09:06:57;;;;;;;1999.90;999.90;;;16.90;99.90;;;;;;5097207;28;20837;-77
2023/10/10 09:09:33;;;;;;;1999.90;999.90;;;17.10;99.90;;;;;;5098056;28;20032;-77
2023/10/10 09:12:02;;;;;;;1999.90;999.90;;;17.40;99.90;;;;;;5079019;28;20139;-77
2023/10/10 09:14:39;;;;;;;1999.90;999.90;;;17.60;99.90;;;;;;5097579;28;20052;-77
2023/10/10 09:17:06;;;;;;;1999.90;999.90;;;17.90;99.90;;;;;;5097199;28;20525;-77
2023/10/10 09:19:36;;;;;;;1999.90;999.90;;;18.20;99.90;;;;;;5097498;28;20037;-77
2023/10/10 09:22:12;;;;;;;1999.90;999.90;;;18.30;99.90;;;;;;5097878;28;20056;-77
2023/10/10 09:24:40;;;;;;;1999.90;999.90;;;18.40;99.90;;;;;;5080359;28;20508;-77
2023/10/10 09:27:27;;;;;;;1999.90;999.90;;;18.60;99.90;;;;;;5097194;28;20119;-77
2023/10/10 09:29:56;;;;;;;1999.90;999.90;;;18.90;99.90;;;;;;5096873;28;20111;-77
2023/10/10 09:32:30;;;;;;;1999.90;999.90;;;19.00;99.90;;;;;;5097698;28;20025;-77
2023/10/10 09:34:57;;;;;;;1999.90;999.90;;;19.20;99.90;;;;;;5079421;28;20039;-77
2023/10/10 09:37:34;;;;;;;1999.90;999.90;;;19.30;99.90;;;;;;5097509;28;20036;-77
2023/10/10 09:40:04;;;;;;;1999.90;999.90;;;19.30;99.90;;;;;;5098137;28;20032;-77
2023/10/10 09:43:03;;;;;;;1999.90;999.90;;;19.30;99.90;;;;;;5079446;28;20836;-77
2023/10/10 09:48:28;;;;;;;1999.90;999.90;;;19.30;99.90;;;;;;5098064;28;20032;-77
2023/10/10 09:51:16;;;;;;;1999.90;999.90;;;19.30;99.90;;;;;;5079304;28;20052;-77
2023/10/10 09:53:46;;;;;;;1999.90;999.90;;;19.30;99.90;;;;;;5079236;28;20050;-76
2023/10/10 09:56:14;;;;;;;1999.90;999.90;;;19.40;99.90;;;;;;5097599;28;20043;-77
2023/10/10 09:58:42;;;;;;;1999.90;999.90;;;19.60;99.90;;;;;;5096785;28;20032;-77
2023/10/10 10:01:18;;;;;;;1999.90;999.90;;;19.70;99.90;;;;;;5096508;28;20028;-77
2023/10/10 10:04:03;;;;;;;1999.90;999.90;;;19.80;99.90;;;;;;5096706;28;20070;-78
2023/10/10 10:07:01;;;;;;;1999.90;999.90;;;20.00;99.90;;;;;;5077731;28;20035;-77
2023/10/10 10:10:09;;;;;;;1999.90;999.90;;;20.30;99.90;;;;;;5078083;28;20089;-76
2023/10/10 10:12:45;;;;;;;1999.90;999.90;;;20.60;99.90;;;;;;5035347;28;20492;-77
2023/10/10 10:15:48;;;;;;;1999.90;999.90;;;20.60;99.90;;;;;;5078180;28;20036;-77
2023/10/10 10:18:26;;;;;;;1999.90;999.90;;;20.70;99.90;;;;;;5077709;28;20039;-77
2023/10/10 10:21:14;;;;;;;1999.90;999.90;;;20.80;99.90;;;;;;5078018;28;20485;-77
2023/10/10 10:23:55;;;;;;;1999.90;999.90;;;20.90;99.90;;;;;;5096521;28;20024;-77
2023/10/10 10:26:33;;;;;;;1999.90;999.90;;;20.90;99.90;;;;;;5096264;28;20052;-77
2023/10/10 10:29:14;;;;;;;1999.90;999.90;;;21.10;99.90;;;;;;5096156;28;20036;-77
2023/10/10 10:31:40;;;;;;;1999.90;999.90;;;21.20;99.90;;;;;;5096233;28;20032;-78
2023/10/10 10:34:23;;;;;;;1999.90;999.90;;;21.30;99.90;;;;;;5077923;28;20029;-77
2023/10/10 10:37:02;;;;;;;1999.90;999.90;;;21.40;99.90;;;;;;5096026;28;20047;-77
2023/10/10 10:39:35;;;;;;;1999.90;999.90;;;21.50;99.90;;;;;;5096222;28;20103;-77
2023/10/10 10:42:01;;;;;;;1999.90;999.90;;;21.40;99.90;;;;;;5096145;28;20036;-77
2023/10/10 10:44:53;;;;;;;1999.90;999.90;;;21.20;99.90;;;;;;5096088;28;20620;-78
2023/10/10 10:47:46;;;;;;;1999.90;999.90;;;21.30;99.90;;;;;;5095086;28;20028;-77
2023/10/10 10:50:30;;;;;;;1999.90;999.90;;;21.30;99.90;;;;;;5096019;28;20445;-79
2023/10/10 10:53:06;;;;;;;1999.90;999.90;;;21.40;99.90;;;;;;5077365;28;20032;-77
2023/10/10 10:55:39;;;;;;;1999.90;999.90;;;21.50;99.90;;;;;;5095466;28;20052;-77
2023/10/10 10:58:06;;;;;;;1999.90;999.90;;;21.50;99.90;;;;;;5095124;28;20166;-77
2023/10/10 11:03:35;;;;;;;1999.90;999.90;;;21.80;99.90;;;;;;5092535;28;20490;-77
2023/10/10 11:06:09;;;;;;;1999.90;999.90;;;21.90;99.90;;;;;;5095539;28;20060;-77
2023/10/10 11:11:40;;;;;;;1999.90;999.90;;;22.00;99.90;;;;;;5092530;28;20076;-77
2023/10/10 11:14:18;;;;;;;1999.90;999.90;;;22.20;99.90;;;;;;5095680;28;20025;-77
2023/10/10 11:16:56;;;;;;;1999.90;999.90;;;22.20;99.90;;;;;;5076877;28;20048;-77
2023/10/10 11:21:53;;;;;;;1999.90;999.90;;;22.50;99.90;;;;;;5095504;28;20190;-77
2023/10/10 11:24:23;;;;;;;1999.90;999.90;;;22.70;99.90;;;;;;5076932;28;20043;-77
2023/10/10 11:29:48;;;;;;;1999.90;999.90;;;23.00;99.90;;;;;;5092130;28;20025;-77
2023/10/10 11:32:24;;;;;;;1999.90;999.90;;;23.10;99.90;;;;;;5095457;28;20041;-77
2023/10/10 11:35:11;;;;;;;1999.90;999.90;;;23.20;99.90;;;;;;5076739;28;20484;-77
2023/10/10 11:37:42;;;;;;;1999.90;999.90;;;23.20;99.90;;;;;;5076227;28;20032;-77
2023/10/10 11:40:19;;;;;;;1999.90;999.90;;;23.20;99.90;;;;;;5095258;28;20052;-77
2023/10/10 11:42:49;;;;;;;1999.90;999.90;;;23.10;99.90;;;;;;5095265;28;20024;-77
2023/10/10 11:45:19;;;;;;;1999.90;999.90;;;23.00;99.90;;;;;;5076647;28;20043;-77
2023/10/10 11:47:46;;;;;;;1999.90;999.90;;;23.10;99.10;;;;;;5076182;28;20102;-77
2023/10/10 11:50:15;;;;;;;1999.90;999.90;;;23.00;99.70;;;;;;5094978;28;20039;-77
2023/10/10 11:53:01;;;;;;;1999.90;999.90;;;22.90;99.70;;;;;;5076168;28;20021;-77
2023/10/10 11:55:29;;;;;;;1999.90;999.90;;;23.00;99.20;;;;;;5094332;28;20506;-77
2023/10/10 11:57:58;;;;;;;1999.90;999.90;;;23.20;98.60;;;;;;5093786;28;20059;-77
2023/10/10 12:00:42;;;;;;;1999.90;999.90;;;23.40;98.50;;;;;;5094725;28;20055;-77
2023/10/10 12:03:08;;;;;;;1999.90;999.90;;;23.60;98.50;;;;;;5076556;28;20029;-77
2023/10/10 12:08:01;;;;;;;1999.90;999.90;;;23.70;97.90;;;;;;5094338;28;20032;-77
2023/10/10 12:13:19;;;;;;;1999.90;999.90;;;24.00;95.80;;;;;;5094995;28;20037;-77
2023/10/10 12:15:46;;;;;;;1999.90;999.90;;;24.10;95.40;;;;;;5094463;28;20052;-77
2023/10/10 12:18:11;;;;;;;1999.90;999.90;;;24.20;95.40;;;;;;5094350;28;20028;-78
2023/10/10 12:20:42;;;;;;;1999.90;999.90;;;24.40;96.00;;;;;;5094609;28;20502;-77
2023/10/10 12:23:08;;;;;;;1999.90;999.90;;;24.40;96.50;;;;;;5094834;28;20029;-77
2023/10/10 12:25:37;;;;;;;1999.90;999.90;;;24.60;95.20;;;;;;5094529;28;20103;-77
2023/10/10 12:28:03;;;;;;;1999.90;999.90;;;24.70;95.10;;;;;;5075590;28;20494;-78
2023/10/10 12:30:29;;;;;;;1999.90;999.90;;;24.70;94.50;;;;;;5076265;28;20041;-77
2023/10/10 12:32:56;;;;;;;1999.90;999.90;;;24.90;93.80;;;;;;5094401;28;20033;-77
2023/10/10 12:35:25;;;;;;;1999.90;999.90;;;25.00;93.20;;;;;;5076108;28;20048;-77
2023/10/10 12:38:00;;;;;;;1999.90;999.90;;;25.00;93.90;;;;;;5093708;28;20522;-77
2023/10/10 12:40:26;;;;;;;1999.90;999.90;;;25.00;94.60;;;;;;5076051;28;20033;-78
2023/10/10 12:42:51;;;;;;;1999.90;999.90;;;25.00;93.40;;;;;;5094381;28;20032;-78
2023/10/10 12:45:17;;;;;;;1999.90;999.90;;;25.20;92.50;;;;;;5075836;28;20041;-78
2023/10/10 12:47:43;;;;;;;1999.90;999.90;;;25.00;93.10;;;;;;5093992;28;20035;-77
2023/10/10 12:50:13;;;;;;;1999.90;999.90;;;25.00;94.00;;;;;;5094315;28;20082;-77
2023/10/10 12:52:45;;;;;;;1999.90;999.90;;;25.00;92.60;;;;;;5075903;28;20128;-77
2023/10/10 12:55:11;;;;;;;1999.90;999.90;;;25.00;93.50;;;;;;5094212;28;20037;-77
2023/10/10 12:57:38;;;;;;;1999.90;999.90;;;25.10;91.80;;;;;;5093500;28;20028;-78
2023/10/10 13:00:23;;;;;;;1999.90;999.90;;;25.30;92.10;;;;;;5094171;28;20065;-79
2023/10/10 13:02:50;;;;;;;1999.90;999.90;;;25.20;92.70;;;;;;5094128;28;20024;-78
2023/10/10 13:05:26;;;;;;;1999.90;999.90;;;25.20;92.10;;;;;;5096391;28;20064;-77
2023/10/10 13:07:52;;;;;;;1999.90;999.90;;;25.00;91.60;;;;;;5097292;28;20020;-77
2023/10/10 13:10:18;;;;;;;1999.90;999.90;;;24.90;92.00;;;;;;5079064;28;20060;-77
2023/10/10 13:12:51;;;;;;;1999.90;999.90;;;25.00;92.20;;;;;;5097508;28;20060;-77
2023/10/10 13:15:27;;;;;;;1999.90;999.90;;;24.90;91.90;;;;;;5078908;28;20465;-77
2023/10/10 13:17:54;;;;;;;1999.90;999.90;;;24.80;91.90;;;;;;5097242;28;20033;-77
2023/10/10 13:20:21;;;;;;;1999.90;999.90;;;24.70;92.50;;;;;;5078904;28;20041;-78
2023/10/10 13:22:55;;;;;;;1999.90;999.90;;;24.90;91.90;;;;;;5097487;28;20028;-78
2023/10/10 13:25:21;;;;;;;1999.90;999.90;;;24.90;92.80;;;;;;5097198;28;20044;-77
2023/10/10 13:27:52;;;;;;;1999.90;999.90;;;24.80;92.00;;;;;;5078327;28;20547;-78
2023/10/10 13:30:17;;;;;;;1999.90;999.90;;;24.90;92.10;;;;;;5096985;28;20043;-77
2023/10/10 13:32:43;;;;;;;1999.90;999.90;;;25.00;91.80;;;;;;5096926;28;20028;-77
2023/10/10 13:35:09;;;;;;;1999.90;999.90;;;25.00;91.40;;;;;;5096994;28;20566;-78
2023/10/10 13:37:40;;;;;;;1999.90;999.90;;;24.90;92.30;;;;;;5096708;28;20078;-77
2023/10/10 13:40:07;;;;;;;1999.90;999.90;;;25.00;92.50;;;;;;5097161;28;20032;-77
2023/10/10 13:42:32;;;;;;;1999.90;999.90;;;24.90;91.50;;;;;;5078516;28;20040;-77
2023/10/10 13:45:10;;;;;;;1999.90;999.90;;;25.00;90.40;;;;;;5096950;28;20047;-77
2023/10/10 13:47:39;;;;;;;1999.90;999.90;;;25.00;92.10;;;;;;5078035;28;20040;-78
2023/10/10 13:52:51;;;;;;;1999.90;999.90;;;24.80;90.90;;;;;;5097108;28;20036;-77
2023/10/10 13:55:18;;;;;;;1999.90;999.90;;;24.70;90.80;;;;;;5078250;28;20040;-79
2023/10/10 13:57:44;;;;;;;1999.90;999.90;;;24.70;90.90;;;;;;5077526;28;20029;-77
2023/10/10 14:00:29;;;;;;;1999.90;999.90;;;24.80;91.40;;;;;;5096888;28;20489;-77
2023/10/10 14:03:03;;;;;;;1999.90;999.90;;;24.90;90.80;;;;;;5096892;28;20103;-78
2023/10/10 14:05:29;;;;;;;1999.90;999.90;;;24.90;91.40;;;;;;5096505;28;20024;-77
2023/10/10 14:07:55;;;;;;;1999.90;999.90;;;25.00;91.70;;;;;;5096331;28;20025;-77
2023/10/10 14:10:21;;;;;;;1999.90;999.90;;;24.90;91.30;;;;;;5096731;28;20035;-78
2023/10/10 14:12:47;;;;;;;1999.90;999.90;;;24.90;90.70;;;;;;5078183;28;20037;-77
2023/10/10 14:15:14;;;;;;;1999.90;999.90;;;24.80;90.60;;;;;;5077766;28;20048;-78
2023/10/10 14:17:40;;;;;;;1999.90;999.90;;;24.70;90.50;;;;;;5077531;28;20064;-78
2023/10/10 14:20:19;;;;;;;1999.90;999.90;;;24.50;89.90;;;;;;5096565;28;20133;-77
2023/10/10 14:22:46;;;;;;;1999.90;999.90;;;24.20;86.40;;;;;;5096718;28;20032;-77
2023/10/10 14:25:12;;;;;;;1999.90;999.90;;;24.20;84.70;;;;;;5096645;28;20047;-77
2023/10/10 14:27:43;;;;;;;1999.90;999.90;;;24.20;83.80;;;;;;5095913;28;20055;-77
2023/10/10 14:30:20;;;;;;;1999.90;999.90;;;24.20;80.80;;;;;;5096416;28;20029;-77
2023/10/10 14:32:53;;;;;;;1999.90;999.90;;;24.00;82.90;;;;;;5096279;28;20478;-77
2023/10/10 14:35:22;;;;;;;1999.90;999.90;;;24.10;81.10;;;;;;5096399;28;20037;-79
2023/10/10 14:37:50;;;;;;;1999.90;999.90;;;24.00;78.40;;;;;;5095378;28;20033;-77
2023/10/10 14:40:16;;;;;;;1999.90;999.90;;;24.10;78.00;;;;;;5077730;28;20040;-78
2023/10/10 14:42:41;;;;;;;1999.90;999.90;;;24.30;77.20;;;;;;5096098;28;20025;-78
2023/10/10 14:45:07;;;;;;;1999.90;999.90;;;24.40;76.40;;;;;;5077564;28;20082;-77
2023/10/10 14:47:36;;;;;;;1999.90;999.90;;;24.50;75.00;;;;;;5095586;28;20083;-77